Flight Track Log - Related Links

Times and Time Zones

All times are in EST time to prevent confusion due to time zone crossing. See the N690TW flight status page for this flight to view local times or setup timezone preferences in your user account.

Time Position Orientation Groundspeed Altitude Reporting Facility
EST Latitude Longitude Course Direction KTS MPH feet Rate Location/Type
Sun 10:58:12 PM 33.5333 -112.2833 18° North 184 212 1,400  Level Phoenix TRACON
Sun 10:59:21 PM 33.5831 -112.2642 18° North 161 185 3,300 1,546 Climbing Albuquerque Center
Sun 10:59:49 PM 33.5950 -112.2403 59° Northeast 167 192 3,900 500 Climbing Albuquerque Center
Sun 11:00:21 PM 33.6103 -112.2139 55° Northeast 200 230 3,800 393 Descending Albuquerque Center
Sun 11:00:50 PM 33.6342 -112.1947 34° Northeast 202 232 4,300 1,180 Climbing Albuquerque Center
Sun 11:01:22 PM 33.6658 -112.2022 349° North 209 241 5,000 1,279 Climbing Albuquerque Center
Sun 11:01:51 PM 33.6883 -112.2053 354° North 197 227 5,600 1,279 Climbing Albuquerque Center
Sun 11:02:23 PM 33.7186 -112.2117 350° North 199 229 6,300 1,475 Climbing Albuquerque Center
Sun 11:02:52 PM 33.7425 -112.2175 349° North 198 228 7,100 1,700 Climbing Albuquerque Center
Sun 11:03:23 PM 33.7731 -112.2283 344° North 195 224 8,000 1,574 Climbing Albuquerque Center
Sun 11:03:53 PM 33.7958 -112.2322 352° North 197 227 8,700 1,574 Climbing Albuquerque Center
Sun 11:04:24 PM 33.8247 -112.2431 343° North 196 226 9,600 1,574 Climbing Albuquerque Center
Sun 11:04:54 PM 33.8497 -112.2467 353° North 198 228 10,300 1,700 Climbing Albuquerque Center
Sun 11:05:24 PM 33.8806 -112.2569 345° North 197 227 11,300 1,574 Climbing Albuquerque Center
Sun 11:05:55 PM 33.9025 -112.2611 351° North 195 224 11,900 1,475 Climbing Albuquerque Center
Sun 11:06:25 PM 33.9342 -112.2714 345° North 199 229 12,800 1,065 Climbing Albuquerque Center
Sun 11:06:57 PM 33.9581 -112.2772 349° North 204 235 13,000 197 Climbing Albuquerque Center
Sun 11:07:26 PM 33.9992 -112.2881 348° North 238 274 13,000  Level Albuquerque Center
Sun 11:07:58 PM 34.0253 -112.2947 348° North 241 277 13,000 300 Level Albuquerque Center
Sun 11:08:26 PM 34.0644 -112.3072 345° North 264 304 13,300 885 Climbing Albuquerque Center
Sun 11:08:59 PM 34.0944 -112.3133 350° North 253 291 13,900 1,377 Climbing Albuquerque Center
Sun 11:09:27 PM 34.1333 -112.3228 349° North 239 275 14,700 1,377 Climbing Albuquerque Center
Sun 11:10:00 PM 34.1572 -112.3303 345° North 234 269 15,300 1,213 Climbing Albuquerque Center
Sun 11:11:01 PM 34.2131 -112.3022 23° Northeast 235 270 16,600 1,230 Climbing Albuquerque Center
Sun 11:12:02 PM 34.2594 -112.2483 44° Northeast 233 268 17,800 1,328 Climbing Albuquerque Center
Sun 11:13:03 PM 34.3042 -112.1947 45° Northeast 228 262 19,300 1,623 Climbing Albuquerque Center
Sun 11:14:04 PM 34.3583 -112.1303 44° Northeast 227 261 21,100 1,623 Climbing Albuquerque Center
Sun 11:15:05 PM 34.4050 -112.0758 44° Northeast 230 265 22,600 1,512 Climbing Albuquerque Center
Sun 11:16:07 PM 34.4519 -112.0186 45° Northeast 236 272 24,200 1,463 Climbing Albuquerque Center
Sun 11:17:08 PM 34.4989 -111.9628 44° Northeast 236 272 25,600 1,230 Climbing Albuquerque Center
Sun 11:18:09 PM 34.5467 -111.9058 44° Northeast 238 274 26,700 1,082 Climbing Albuquerque Center
Sun 11:19:10 PM 34.5956 -111.8469 45° Northeast 244 281 27,800 1,082 Climbing Albuquerque Center
Sun 11:20:11 PM 34.6461 -111.7858 45° Northeast 252 290 28,900 934 Climbing Albuquerque Center
Sun 11:21:12 PM 34.6972 -111.7233 45° Northeast 257 296 29,700 836 Climbing Albuquerque Center
Sun 11:22:13 PM 34.7494 -111.6600 45° Northeast 263 303 30,600 780 Climbing Albuquerque Center
Sun 11:23:15 PM 34.8014 -111.5956 46° Northeast 266 306 31,300 683 Climbing Albuquerque Center
Sun 11:24:16 PM 34.8558 -111.5311 44° Northeast 269 310 32,000 689 Climbing Albuquerque Center
Sun 11:25:17 PM 34.9086 -111.4656 46° Northeast 272 313 32,700 492 Climbing Albuquerque Center
Sun 11:26:18 PM 34.9728 -111.3872 45° Northeast 271 312 33,000 148 Climbing Albuquerque Center
Sun 11:27:19 PM 35.0297 -111.3197 44° Northeast 281 323 33,000  Level Albuquerque Center
Sun 11:28:20 PM 35.0858 -111.2481 46° Northeast 288 331 33,000  Level Albuquerque Center
Sun 11:29:22 PM 35.1436 -111.1772 45° Northeast 293 337 33,000  Level Albuquerque Center
Sun 11:30:23 PM 35.2022 -111.1061 45° Northeast 295 339 33,000  Level Albuquerque Center
Sun 11:31:24 PM 35.2639 -111.0281 46° Northeast 297 342 33,000  Level Albuquerque Center
Sun 11:32:25 PM 35.3189 -110.9603 45° Northeast 294 338 33,000  Level Albuquerque Center
Sun 11:33:26 PM 35.3847 -110.8797 45° Northeast 298 343 33,000  Level Albuquerque Center
Sun 11:34:28 PM 35.4411 -110.8089 46° Northeast 302 348 33,000  Level Albuquerque Center
Sun 11:35:29 PM 35.4972 -110.7397 45° Northeast 300 345 33,000  Level Albuquerque Center
Sun 11:36:30 PM 35.5622 -110.6586 45° Northeast 298 343 33,000  Level Albuquerque Center
Sun 11:37:31 PM 35.6178 -110.5900 45° Northeast 297 342 33,000  Level Albuquerque Center
Sun 11:38:32 PM 35.6803 -110.5094 46° Northeast 293 337 33,000  Level Albuquerque Center
Sun 11:39:34 PM 35.7356 -110.4411 45° Northeast 294 338 33,000  Level Albuquerque Center
Sun 11:40:35 PM 35.7914 -110.3714 45° Northeast 296 341 33,000  Level Albuquerque Center
Sun 11:41:36 PM 35.8556 -110.2900 46° Northeast 297 342 33,000  Level Albuquerque Center
Sun 11:42:37 PM 35.9114 -110.2208 45° Northeast 297 342 33,000  Level Albuquerque Center
Sun 11:43:38 PM 35.9656 -110.1519 46° Northeast 294 338 33,000  Level Albuquerque Center
Sun 11:44:30 PM 36.0194 -110.0833 46° Northeast 295 339 33,000  Level Denver Center
Sun 11:45:31 PM 36.0739 -110.0142 46° Northeast 293 337 33,000  Level Denver Center
Sun 11:46:32 PM 36.1392 -109.9331 45° Northeast 295 339 33,000  Level Denver Center
Sun 11:47:33 PM 36.1928 -109.8628 47° Northeast 295 339 33,000  Level Denver Center
Sun 11:48:34 PM 36.2467 -109.7933 46° Northeast 293 337 33,000  Level Denver Center
Sun 11:49:35 PM 36.3100 -109.7125 46° Northeast 292 336 33,000  Level Denver Center
Sun 11:50:36 PM 36.3644 -109.6422 46° Northeast 293 337 33,000  Level Denver Center
Sun 11:51:37 PM 36.4172 -109.5736 46° Northeast 289 333 33,000  Level Denver Center
Sun 11:52:39 PM 36.4814 -109.4906 46° Northeast 297 342 33,000  Level Denver Center
Sun 11:53:40 PM 36.5356 -109.4214 46° Northeast 293 337 33,000  Level Denver Center
Sun 11:54:41 PM 36.5903 -109.3500 46° Northeast 296 341 33,000  Level Denver Center
Sun 11:55:42 PM 36.6556 -109.2658 46° Northeast 299 344 33,000  Level Denver Center
Sun 11:56:43 PM 36.7103 -109.1944 46° Northeast 298 343 33,000  Level Denver Center
Sun 11:57:44 PM 36.7650 -109.1222 47° Northeast 299 344 33,000  Level Denver Center
Sun 11:58:45 PM 36.8297 -109.0381 46° Northeast 300 345 33,000  Level Denver Center
Sun 11:59:45 PM 36.8842 -108.9658 47° Northeast 298 343 33,000  Level Denver Center
Mon 12:00:46 AM 36.9394 -108.8931 46° Northeast 300 345 33,000  Level Denver Center
Mon 12:01:47 AM 37.0025 -108.8089 47° Northeast 297 342 33,000  Level Denver Center
Mon 12:02:48 AM 37.0569 -108.7381 46° Northeast 296 341 33,000  Level Denver Center
Mon 12:03:49 AM 37.1122 -108.6631 47° Northeast 302 348 33,000  Level Denver Center
Mon 12:04:50 AM 37.1750 -108.5792 47° Northeast 298 343 33,000  Level Denver Center
Mon 12:05:51 AM 37.2297 -108.5086 46° Northeast 295 339 33,000  Level Denver Center
Mon 12:06:52 AM 37.2925 -108.4256 46° Northeast 294 338 33,000  Level Denver Center
Mon 12:07:53 AM 37.3469 -108.3533 47° Northeast 296 341 33,000  Level Denver Center
Mon 12:08:54 AM 37.4006 -108.2794 48° Northeast 296 341 33,000  Level Denver Center
Mon 12:09:55 AM 37.4636 -108.1942 47° Northeast 299 344 33,000  Level Denver Center
Mon 12:10:56 AM 37.5181 -108.1214 47° Northeast 297 342 33,000  Level Denver Center
Mon 12:11:57 AM 37.5717 -108.0469 48° Northeast 299 344 33,000  Level Denver Center
Mon 12:12:58 AM 37.6342 -107.9619 47° Northeast 298 343 33,000  Level Denver Center
Mon 12:13:59 AM 37.6883 -107.8889 47° Northeast 297 342 33,000  Level Denver Center
Mon 12:15:00 AM 37.7422 -107.8186 46° Northeast 292 336 33,000  Level Denver Center
Mon 12:16:01 AM 37.8036 -107.7333 48° Northeast 292 336 33,000  Level Denver Center
Mon 12:17:02 AM 37.8572 -107.6603 47° Northeast 294 338 33,000  Level Denver Center
Mon 12:18:03 AM 37.9108 -107.5861 47° Northeast 298 343 33,000  Level Denver Center
Mon 12:19:04 AM 37.9728 -107.5006 47° Northeast 295 339 33,000  Level Denver Center
Mon 12:20:05 AM 38.0264 -107.4286 47° Northeast 294 338 33,000  Level Denver Center
Mon 12:21:06 AM 38.0856 -107.3458 48° Northeast 295 339 33,000  Level Denver Center
Mon 12:22:07 AM 38.1375 -107.2736 48° Northeast 291 335 33,000  Level Denver Center
Mon 12:23:08 AM 38.1978 -107.1881 48° Northeast 291 335 33,000  Level Denver Center
Mon 12:24:09 AM 38.2433 -107.1261 47° Northeast 288 331 33,000  Level Denver Center
Mon 12:25:10 AM 38.2972 -107.0519 47° Northeast 286 329 33,000  Level Denver Center
Mon 12:26:10 AM 38.3500 -106.9772 48° Northeast 285 328 33,000  Level Denver Center
Mon 12:27:11 AM 38.4044 -106.9025 47° Northeast 287 330 33,000  Level Denver Center
Mon 12:28:12 AM 38.4667 -106.8150 48° Northeast 281 323 33,000  Level Denver Center
Mon 12:29:13 AM 38.5192 -106.7400 48° Northeast 282 325 33,000  Level Denver Center
Mon 12:30:14 AM 38.5714 -106.6664 48° Northeast 281 323 33,000  Level Denver Center
Mon 12:31:15 AM 38.6233 -106.5925 48° Northeast 281 323 33,000 -492 Level Denver Center
Mon 12:32:16 AM 38.6758 -106.5181 48° Northeast 283 326 32,000 -1,033 Descending Denver Center
Mon 12:33:17 AM 38.7278 -106.4436 48° Northeast 281 323 30,900 -1,082 Descending Denver Center
Mon 12:34:18 AM 38.7819 -106.3658 48° Northeast 290 334 29,800 -1,082 Descending Denver Center
Mon 12:35:19 AM 38.8369 -106.2875 48° Northeast 295 339 28,700 -1,131 Descending Denver Center
Mon 12:36:20 AM 38.8942 -106.2047 48° Northeast 297 342 27,500 -1,240 Descending Denver Center
Mon 12:37:20 AM 38.9531 -106.1192 48° Northeast 299 344 26,200 -1,190 Descending Denver Center
Mon 12:38:21 AM 39.0086 -106.0400 48° Northeast 299 344 25,100 -1,131 Descending Denver Center
Mon 12:39:22 AM 39.0644 -105.9606 48° Northeast 300 345 23,900 -1,180 Descending Denver Center
Mon 12:40:23 AM 39.1208 -105.8783 49° Northeast 305 351 22,700 -1,131 Descending Denver Center
Mon 12:41:24 AM 39.1764 -105.7975 48° Northeast 303 349 21,600 -1,289 Descending Denver Center
Mon 12:42:24 AM 39.2319 -105.7175 48° Northeast 300 345 20,100 -1,289 Descending Denver Center
Mon 12:43:25 AM 39.2856 -105.6397 48° Northeast 292 336 19,000 -1,082 Descending Denver Center
Mon 12:44:26 AM 39.3389 -105.5619 48° Northeast 290 334 17,900 -934 Descending Denver Center
Mon 12:45:27 AM 39.3917 -105.4847 48° Northeast 289 333 17,100 -942 Descending Denver Center
Mon 12:46:27 AM 39.4403 -105.4042 52° Northeast 266 306 16,000 -1,140 Descending Denver Center
Mon 12:47:28 AM 39.4844 -105.3294 53° Northeast 246 283 14,800 -1,082 Descending Denver Center
Mon 12:48:29 AM 39.5242 -105.2608 53° Northeast 239 275 13,800 -1,041 Descending Denver Center
Mon 12:49:29 AM 39.5650 -105.1906 53° Northeast 245 282 12,700 -1,041 Descending Denver Center
Mon 12:50:30 AM 39.6044 -105.1208 54° Northeast 241 277 11,700 -787 Descending Denver Center
Mon 12:51:31 AM 39.6447 -105.0542 52° Northeast 236 272 11,100 -934 Descending Denver Center
Mon 12:52:32 AM 39.6944 -104.9992 40° Northeast 242 278 9,800 -1,488 Descending Denver Center
Mon 12:53:32 AM 39.7600 -104.9983 North 235 270 8,100 -1,339 Descending Denver Center
Mon 12:54:33 AM 39.8167 -105.0128 349° North 211 243 7,100 -984 Descending Denver Center

Login

Don't have an account? Register now (free) for customized features, flight alerts, and more!